createdAt,value
2017-06-12T00:00:26.790Z,26.09
2017-06-12T00:01:29.195Z,26.09
2017-06-12T00:02:31.602Z,26.09
2017-06-12T00:03:34.015Z,26.09
2017-06-12T00:04:36.419Z,26.09
2017-06-12T00:05:38.828Z,26.07
2017-06-12T00:06:41.235Z,26.07
2017-06-12T00:07:43.643Z,26.09
2017-06-12T00:08:46.060Z,26.09
2017-06-12T00:09:48.468Z,26.09
2017-06-12T00:10:50.876Z,26.09
2017-06-12T00:11:53.286Z,26.09
2017-06-12T00:12:55.686Z,26.09
2017-06-12T00:13:58.094Z,26.06
2017-06-12T00:15:00.497Z,26.07
2017-06-12T00:16:02.902Z,26.07
2017-06-12T00:17:05.306Z,26.07
2017-06-12T00:18:07.737Z,26.07
2017-06-12T00:19:10.149Z,26.06
2017-06-12T00:20:12.557Z,26.06
2017-06-12T00:21:14.962Z,26.07
2017-06-12T00:22:17.369Z,26.09
2017-06-12T00:23:19.775Z,26.07
2017-06-12T00:24:22.182Z,26.07
2017-06-12T00:25:24.588Z,26.07
2017-06-12T00:26:26.997Z,26.09
2017-06-12T00:27:29.404Z,26.07
2017-06-12T00:28:31.815Z,26.07
2017-06-12T00:29:34.230Z,26.07
2017-06-12T00:30:36.637Z,26.06
2017-06-12T00:31:39.047Z,26.06
2017-06-12T00:32:41.449Z,26.07
2017-06-12T00:33:43.856Z,26.06
2017-06-12T00:34:46.264Z,26.06
2017-06-12T00:35:48.673Z,26.07
2017-06-12T00:36:51.102Z,26.07
2017-06-12T00:37:53.484Z,26.06
2017-06-12T00:38:55.893Z,26.05
2017-06-12T00:39:58.304Z,26.06
2017-06-12T00:41:00.729Z,26.07
2017-06-12T00:42:03.140Z,26.05
2017-06-12T00:43:05.564Z,26.06
2017-06-12T00:44:07.954Z,26.05
2017-06-12T00:45:10.365Z,26.07
2017-06-12T00:46:12.772Z,26.06
2017-06-12T00:47:15.180Z,26.06
2017-06-12T00:48:17.585Z,26.06
2017-06-12T00:49:19.992Z,26.05
2017-06-12T00:50:22.395Z,26.06
2017-06-12T00:51:24.802Z,26.06
2017-06-12T00:52:27.211Z,26.06
2017-06-12T00:53:29.615Z,26.05
2017-06-12T00:54:32.024Z,26.05
2017-06-12T00:55:34.432Z,26.05
2017-06-12T00:56:36.835Z,26.05
2017-06-12T00:57:39.244Z,26.05
2017-06-12T00:58:41.651Z,26.06
2017-06-12T00:59:44.058Z,26.03
2017-06-12T01:00:46.463Z,26.03
2017-06-12T01:01:48.895Z,26.05
2017-06-12T01:02:51.324Z,26.05
2017-06-12T01:03:53.735Z,26.05
2017-06-12T01:04:56.142Z,26.05
2017-06-12T01:05:58.547Z,26.05
2017-06-12T01:07:00.957Z,26.03
2017-06-12T01:08:03.381Z,26.03
2017-06-12T01:09:05.773Z,26.03
2017-06-12T01:10:08.196Z,26.03
2017-06-12T01:11:10.602Z,26.03
2017-06-12T01:12:13.010Z,26.02
2017-06-12T01:13:15.426Z,26.02
2017-06-12T01:14:17.850Z,26.02
2017-06-12T01:15:20.244Z,26.02
2017-06-12T01:16:22.655Z,26.02
2017-06-12T01:17:25.058Z,26.03
2017-06-12T01:18:27.468Z,26.03
2017-06-12T01:19:29.867Z,26.02
2017-06-12T01:20:32.274Z,26.03
2017-06-12T01:21:34.679Z,26.02
2017-06-12T01:22:37.103Z,26.02
2017-06-12T01:23:39.514Z,26.00
2017-06-12T01:24:41.918Z,26.00
2017-06-12T01:25:44.320Z,26.00
2017-06-12T01:26:46.738Z,26.02
2017-06-12T01:27:49.143Z,26.02
2017-06-12T01:28:51.551Z,26.00
2017-06-12T01:29:53.954Z,26.00
2017-06-12T01:30:56.362Z,26.02
2017-06-12T01:31:58.770Z,26.02
2017-06-12T01:33:01.183Z,25.99
2017-06-12T01:34:03.597Z,26.00
2017-06-12T01:35:06.002Z,26.00
2017-06-12T01:36:08.409Z,25.99
2017-06-12T01:37:10.816Z,25.99
2017-06-12T01:38:13.230Z,26.00
2017-06-12T01:39:15.640Z,25.99
2017-06-12T01:40:18.044Z,26.00
2017-06-12T01:41:20.452Z,26.00
2017-06-12T01:42:22.857Z,25.99
2017-06-12T01:43:25.267Z,26.00
2017-06-12T01:44:27.685Z,25.99
2017-06-12T01:45:30.101Z,25.99
2017-06-12T01:46:32.508Z,26.00
2017-06-12T01:47:34.912Z,26.00
2017-06-12T01:48:37.323Z,26.00
2017-06-12T01:49:39.724Z,25.99
2017-06-12T01:50:42.128Z,25.99
2017-06-12T01:51:44.534Z,26.00
2017-06-12T01:52:46.939Z,25.99
2017-06-12T01:53:49.350Z,25.98
2017-06-12T01:54:51.764Z,25.98
2017-06-12T01:55:54.172Z,25.98
2017-06-12T01:56:56.577Z,25.98
2017-06-12T01:57:58.982Z,25.99
2017-06-12T01:59:01.392Z,25.98
2017-06-12T02:00:03.798Z,25.98
2017-06-12T02:01:06.200Z,25.99
2017-06-12T02:02:08.611Z,25.99
2017-06-12T02:03:11.018Z,25.99
2017-06-12T02:04:13.436Z,25.98
2017-06-12T02:05:15.835Z,25.98
2017-06-12T02:06:18.254Z,25.98
2017-06-12T02:07:20.662Z,25.99
2017-06-12T02:08:23.067Z,25.99
2017-06-12T02:09:25.470Z,25.98
2017-06-12T02:10:27.878Z,25.98
2017-06-12T02:11:30.283Z,25.98
2017-06-12T02:12:32.685Z,25.99
2017-06-12T02:13:35.096Z,25.96
2017-06-12T02:14:37.515Z,25.96
2017-06-12T02:15:39.916Z,25.98
2017-06-12T02:16:42.328Z,25.98
2017-06-12T02:17:44.734Z,25.96
2017-06-12T02:18:47.144Z,25.96
2017-06-12T02:19:49.543Z,25.96
2017-06-12T02:20:51.958Z,25.96
2017-06-12T02:21:54.366Z,25.95
2017-06-12T02:22:56.776Z,25.96
2017-06-12T02:23:59.180Z,25.95
2017-06-12T02:25:01.588Z,25.96
2017-06-12T02:26:04.001Z,25.96
2017-06-12T02:27:06.426Z,25.96
2017-06-12T02:28:08.837Z,25.95
2017-06-12T02:29:11.240Z,25.96
2017-06-12T02:30:13.647Z,25.96
2017-06-12T02:31:16.054Z,25.96
2017-06-12T02:32:18.460Z,25.95
2017-06-12T02:33:20.865Z,25.96
2017-06-12T02:34:23.276Z,25.95
2017-06-12T02:35:25.681Z,25.95
2017-06-12T02:36:28.090Z,25.95
2017-06-12T02:37:30.500Z,25.95
2017-06-12T02:38:32.906Z,25.96
2017-06-12T02:39:35.316Z,25.95
2017-06-12T02:40:37.728Z,25.96
2017-06-12T02:41:40.134Z,25.95
2017-06-12T02:42:42.542Z,25.95
2017-06-12T02:43:44.944Z,25.95
2017-06-12T02:44:48.187Z,25.93
2017-06-12T02:45:50.599Z,25.96
2017-06-12T02:46:53.012Z,25.95
2017-06-12T02:47:55.430Z,25.95
2017-06-12T02:48:57.837Z,25.93
2017-06-12T02:50:00.243Z,25.93
2017-06-12T02:51:02.647Z,25.93
2017-06-12T02:52:05.062Z,25.95
2017-06-12T02:53:07.465Z,25.95
2017-06-12T02:54:09.874Z,25.93
2017-06-12T02:55:12.276Z,25.95
2017-06-12T02:56:14.687Z,25.95
2017-06-12T02:57:17.087Z,25.95
2017-06-12T02:58:19.491Z,25.95
2017-06-12T02:59:21.909Z,25.95
2017-06-12T03:00:24.317Z,25.93
2017-06-12T03:01:26.727Z,25.95
2017-06-12T03:02:29.135Z,25.95
2017-06-12T03:03:31.544Z,25.93
2017-06-12T03:04:33.950Z,25.95
2017-06-12T03:05:36.373Z,25.95
2017-06-12T03:06:38.769Z,25.96
2017-06-12T03:07:41.183Z,25.95
2017-06-12T03:08:43.595Z,25.95
2017-06-12T03:09:46.006Z,25.95
2017-06-12T03:10:48.409Z,25.95
2017-06-12T03:11:50.818Z,25.95
2017-06-12T03:12:53.225Z,25.95
2017-06-12T03:13:55.631Z,25.96
2017-06-12T03:14:58.040Z,25.96
2017-06-12T03:16:00.446Z,25.95
2017-06-12T03:17:02.853Z,25.95
2017-06-12T03:18:05.258Z,25.96
2017-06-12T03:19:07.678Z,25.96
2017-06-12T03:20:10.098Z,25.95
2017-06-12T03:21:12.507Z,25.96
2017-06-12T03:22:14.910Z,25.98
2017-06-12T03:23:17.315Z,25.99
2017-06-12T03:24:19.722Z,25.99
2017-06-12T03:25:22.126Z,25.99
2017-06-12T03:26:24.535Z,25.99
2017-06-12T03:27:26.939Z,25.99
2017-06-12T03:28:29.346Z,26.00
2017-06-12T03:29:31.771Z,26.00
2017-06-12T03:30:34.185Z,26.02
2017-06-12T03:31:36.595Z,26.00
2017-06-12T03:32:38.999Z,26.00
2017-06-12T03:33:41.407Z,26.00
2017-06-12T03:34:43.813Z,26.02
2017-06-12T03:35:46.217Z,26.02
2017-06-12T03:36:48.629Z,26.00
2017-06-12T03:37:51.034Z,26.02
2017-06-12T03:38:53.437Z,26.03
2017-06-12T03:39:55.845Z,26.03
2017-06-12T03:40:58.266Z,26.03
2017-06-12T03:42:00.671Z,26.05
2017-06-12T03:43:03.078Z,26.05
2017-06-12T03:44:05.484Z,26.06
2017-06-12T03:45:07.889Z,26.06
2017-06-12T03:46:10.299Z,26.07
2017-06-12T03:47:12.701Z,26.09
2017-06-12T03:48:15.113Z,26.09
2017-06-12T03:49:17.512Z,26.07
2017-06-12T03:50:19.928Z,26.09
2017-06-12T03:51:22.332Z,26.13
2017-06-12T03:52:24.743Z,26.10
2017-06-12T03:53:27.147Z,26.13
2017-06-12T03:54:29.551Z,26.13
2017-06-12T03:55:31.964Z,26.15
2017-06-12T03:56:34.364Z,26.15
2017-06-12T03:57:36.770Z,26.16
2017-06-12T03:58:39.172Z,26.15
2017-06-12T03:59:41.576Z,26.15
2017-06-12T04:00:43.981Z,26.16
2017-06-12T04:01:46.395Z,26.16
2017-06-12T04:02:48.806Z,26.15
2017-06-12T04:03:51.223Z,26.15
2017-06-12T04:04:53.630Z,26.15
2017-06-12T04:05:56.042Z,26.15
2017-06-12T04:06:58.455Z,26.15
2017-06-12T04:08:00.862Z,26.16
2017-06-12T04:09:03.267Z,26.18
2017-06-12T04:10:05.675Z,26.19
2017-06-12T04:11:08.094Z,26.21
2017-06-12T04:12:10.502Z,26.21
2017-06-12T04:13:12.918Z,26.23
2017-06-12T04:14:15.323Z,26.22
2017-06-12T04:15:17.734Z,26.25
2017-06-12T04:16:20.135Z,26.25
2017-06-12T04:17:22.543Z,26.25
2017-06-12T04:18:24.956Z,26.26
2017-06-12T04:19:27.361Z,26.26
2017-06-12T04:20:29.769Z,26.26
2017-06-12T04:21:32.191Z,26.29
2017-06-12T04:22:34.608Z,26.29
2017-06-12T04:23:37.014Z,26.29
2017-06-12T04:24:39.422Z,26.28
2017-06-12T04:25:41.829Z,26.28
2017-06-12T04:26:44.242Z,26.29
2017-06-12T04:27:46.648Z,26.33
2017-06-12T04:28:49.050Z,26.33
2017-06-12T04:29:51.456Z,26.34
2017-06-12T04:30:53.866Z,26.34
2017-06-12T04:31:56.285Z,26.36
2017-06-12T04:32:58.693Z,26.34
2017-06-12T04:34:01.101Z,26.37
2017-06-12T04:35:03.510Z,26.38
2017-06-12T04:36:05.919Z,26.40
2017-06-12T04:37:08.323Z,26.40
2017-06-12T04:38:10.730Z,26.40
2017-06-12T04:39:13.133Z,26.41
2017-06-12T04:40:15.545Z,26.43
2017-06-12T04:41:17.951Z,26.43
2017-06-12T04:42:20.368Z,26.44
2017-06-12T04:43:22.774Z,26.44
2017-06-12T04:44:25.182Z,26.45
2017-06-12T04:45:27.594Z,26.45
2017-06-12T04:46:30.005Z,26.47
2017-06-12T04:47:32.411Z,26.48
2017-06-12T04:48:34.814Z,26.51
2017-06-12T04:49:37.223Z,26.48
2017-06-12T04:50:39.631Z,26.52
2017-06-12T04:51:42.023Z,26.53
2017-06-12T04:52:44.445Z,26.52
2017-06-12T04:53:46.853Z,26.52
2017-06-12T04:54:49.272Z,26.52
2017-06-12T04:55:51.680Z,26.52
2017-06-12T04:56:54.092Z,26.53
2017-06-12T04:57:56.497Z,26.52
2017-06-12T04:58:58.907Z,26.56
2017-06-12T05:00:01.309Z,26.56
2017-06-12T05:01:03.715Z,26.55
2017-06-12T05:02:06.127Z,26.55
2017-06-12T05:03:08.543Z,26.55
2017-06-12T05:04:10.949Z,26.56
2017-06-12T05:05:13.360Z,26.58
2017-06-12T05:06:15.770Z,26.58
2017-06-12T05:07:18.183Z,26.58
2017-06-12T05:08:20.585Z,26.58
2017-06-12T05:09:22.993Z,26.59
2017-06-12T05:10:25.402Z,26.60
2017-06-12T05:11:27.815Z,26.63
2017-06-12T05:12:30.222Z,26.63
2017-06-12T05:13:32.631Z,26.66
2017-06-12T05:14:35.035Z,26.70
2017-06-12T05:15:37.452Z,26.71
2017-06-12T05:16:39.861Z,26.71
2017-06-12T05:17:42.266Z,26.73
2017-06-12T05:18:44.672Z,26.75
2017-06-12T05:19:47.757Z,26.73
2017-06-12T05:20:50.193Z,26.71
2017-06-12T05:21:52.573Z,26.73
2017-06-12T05:22:54.989Z,26.78
2017-06-12T05:23:57.395Z,26.83
2017-06-12T05:24:59.797Z,26.81
2017-06-12T05:26:02.207Z,26.78
2017-06-12T05:27:04.615Z,26.77
2017-06-12T05:28:07.029Z,26.78
2017-06-12T05:29:09.435Z,26.78
2017-06-12T05:30:11.841Z,26.80
2017-06-12T05:31:14.248Z,26.83
2017-06-12T05:32:16.651Z,26.85
2017-06-12T05:33:19.058Z,26.89
2017-06-12T05:34:21.464Z,26.89
2017-06-12T05:35:23.872Z,26.92
2017-06-12T05:36:26.278Z,26.95
2017-06-12T05:37:28.685Z,26.90
2017-06-12T05:38:31.115Z,26.88
2017-06-12T05:39:33.522Z,26.88
2017-06-12T05:40:35.931Z,26.92
2017-06-12T05:41:38.338Z,26.95
2017-06-12T05:42:40.743Z,26.97
2017-06-12T05:43:43.151Z,26.99
2017-06-12T05:44:45.556Z,27.02
2017-06-12T05:45:47.972Z,26.96
2017-06-12T05:46:50.383Z,26.89
2017-06-12T05:47:52.792Z,26.84
2017-06-12T05:48:55.197Z,26.81
2017-06-12T05:49:57.604Z,26.78
2017-06-12T05:51:00.015Z,26.81
2017-06-12T05:52:02.423Z,26.85
2017-06-12T05:53:04.831Z,26.90
2017-06-12T05:54:07.238Z,26.93
2017-06-12T05:55:09.644Z,26.93
2017-06-12T05:56:12.054Z,26.95
2017-06-12T05:57:14.459Z,26.96
2017-06-12T05:58:16.869Z,26.99
2017-06-12T05:59:19.283Z,27.00
2017-06-12T06:00:21.692Z,27.03
2017-06-12T06:01:24.102Z,27.07
2017-06-12T06:02:26.508Z,27.10
2017-06-12T06:03:28.919Z,27.12
2017-06-12T06:04:31.321Z,27.14
2017-06-12T06:05:33.725Z,27.14
2017-06-12T06:06:36.142Z,27.14
2017-06-12T06:07:38.547Z,27.18
2017-06-12T06:08:40.956Z,27.20
2017-06-12T06:09:43.359Z,27.15
2017-06-12T06:10:45.761Z,27.18
2017-06-12T06:11:48.175Z,27.22
2017-06-12T06:12:50.590Z,27.20
2017-06-12T06:13:52.983Z,27.18
2017-06-12T06:14:55.391Z,27.15
2017-06-12T06:15:57.795Z,27.10
2017-06-12T06:17:00.205Z,27.08
2017-06-12T06:18:02.613Z,27.02
2017-06-12T06:19:05.019Z,27.05
2017-06-12T06:20:07.429Z,27.08
2017-06-12T06:21:09.833Z,27.12
2017-06-12T06:22:12.240Z,27.17
2017-06-12T06:23:14.645Z,27.20
2017-06-12T06:24:17.056Z,27.18
2017-06-12T06:25:19.466Z,27.18
2017-06-12T06:26:21.872Z,27.15
2017-06-12T06:27:24.292Z,27.12
2017-06-12T06:28:26.700Z,27.12
2017-06-12T06:29:29.107Z,27.10
2017-06-12T06:30:31.512Z,27.11
2017-06-12T06:31:33.918Z,27.14
2017-06-12T06:32:36.327Z,27.18
2017-06-12T06:33:38.736Z,27.20
2017-06-12T06:34:41.143Z,27.20
2017-06-12T06:35:43.550Z,27.21
2017-06-12T06:36:45.955Z,27.20
2017-06-12T06:37:48.370Z,27.20
2017-06-12T06:38:50.773Z,27.26
2017-06-12T06:39:53.176Z,27.32
2017-06-12T06:40:55.585Z,27.39
2017-06-12T06:41:57.990Z,27.39
2017-06-12T06:43:00.400Z,27.30
2017-06-12T06:44:02.811Z,27.32
2017-06-12T06:45:05.217Z,27.36
2017-06-12T06:46:07.627Z,27.42
2017-06-12T06:47:10.039Z,27.39
2017-06-12T06:48:12.460Z,27.44
2017-06-12T06:49:14.875Z,27.45
2017-06-12T06:50:17.288Z,27.40
2017-06-12T06:51:19.698Z,27.42
2017-06-12T06:52:22.115Z,27.42
2017-06-12T06:53:24.523Z,27.42
2017-06-12T06:54:26.932Z,27.40
2017-06-12T06:55:29.343Z,27.42
2017-06-12T06:56:31.753Z,27.44
2017-06-12T06:57:34.153Z,27.40
2017-06-12T06:58:36.571Z,27.47
2017-06-12T06:59:38.980Z,27.51
2017-06-12T07:00:41.389Z,27.49
2017-06-12T07:01:43.805Z,27.48
2017-06-12T07:02:46.212Z,27.48
2017-06-12T07:03:48.619Z,27.49
2017-06-12T07:04:51.041Z,27.51
2017-06-12T07:05:53.454Z,27.54
2017-06-12T07:06:55.862Z,27.60
2017-06-12T07:07:58.270Z,27.68
2017-06-12T07:09:00.680Z,27.73
2017-06-12T07:10:03.091Z,27.65
2017-06-12T07:11:05.501Z,27.54
2017-06-12T07:12:07.910Z,27.45
2017-06-12T07:13:10.325Z,27.45
2017-06-12T07:14:12.730Z,27.42
2017-06-12T07:15:15.136Z,27.40
2017-06-12T07:16:17.547Z,27.37
2017-06-12T07:17:19.955Z,27.35
2017-06-12T07:18:22.366Z,27.37
2017-06-12T07:19:24.780Z,27.44
2017-06-12T07:20:27.187Z,27.40
2017-06-12T07:21:29.595Z,27.44
2017-06-12T07:22:32.009Z,27.42
2017-06-12T07:23:34.419Z,27.44
2017-06-12T07:24:36.826Z,27.52
2017-06-12T07:25:39.241Z,27.58
2017-06-12T07:26:41.651Z,27.55
2017-06-12T07:27:44.060Z,27.55
2017-06-12T07:28:46.467Z,27.55
2017-06-12T07:29:48.871Z,27.64
2017-06-12T07:30:51.277Z,27.71
2017-06-12T07:31:53.684Z,27.71
2017-06-12T07:32:56.101Z,27.68
2017-06-12T07:33:58.506Z,27.70
2017-06-12T07:35:00.913Z,27.70
2017-06-12T07:36:03.326Z,27.70
2017-06-12T07:37:05.744Z,27.70
2017-06-12T07:38:08.139Z,27.71
2017-06-12T07:39:10.546Z,27.74
2017-06-12T07:40:12.962Z,27.54
2017-06-12T07:41:15.366Z,25.78
2017-06-12T07:42:17.776Z,25.36
2017-06-12T07:43:20.184Z,24.96
2017-06-12T07:44:22.589Z,24.85
2017-06-12T07:45:24.996Z,24.58
2017-06-12T07:46:27.402Z,24.63
2017-06-12T07:47:29.807Z,24.42
2017-06-12T07:48:32.208Z,23.87
2017-06-12T07:49:34.612Z,24.03
2017-06-12T07:50:37.055Z,24.45
2017-06-12T07:51:39.456Z,24.66
2017-06-12T07:52:41.859Z,24.70
2017-06-12T07:53:44.268Z,24.80
2017-06-12T07:54:46.672Z,24.95
2017-06-12T07:55:49.074Z,24.95
2017-06-12T07:56:51.481Z,25.01
2017-06-12T07:57:53.885Z,24.74
2017-06-12T07:58:56.289Z,24.68
2017-06-12T07:59:58.701Z,24.60
2017-06-12T08:01:01.119Z,24.80
2017-06-12T08:02:03.529Z,24.98
2017-06-12T08:03:05.929Z,24.81
2017-06-12T08:04:08.417Z,24.88
2017-06-12T08:05:10.816Z,24.95
2017-06-12T08:06:13.225Z,24.84
2017-06-12T08:07:15.627Z,24.77
2017-06-12T08:08:18.032Z,24.68
2017-06-12T08:09:20.434Z,24.70
2017-06-12T08:10:22.839Z,24.74
2017-06-12T08:11:25.247Z,24.76
2017-06-12T08:12:27.653Z,24.74
2017-06-12T08:13:30.075Z,24.55
2017-06-12T08:14:32.482Z,24.47
2017-06-12T08:15:34.890Z,24.28
2017-06-12T08:16:37.294Z,24.36
2017-06-12T08:17:39.703Z,24.38
2017-06-12T08:18:42.106Z,24.32
2017-06-12T08:19:44.512Z,24.11
2017-06-12T08:20:46.918Z,24.21
2017-06-12T08:21:49.341Z,24.28
2017-06-12T08:22:51.750Z,24.24
2017-06-12T08:23:54.178Z,24.29
2017-06-12T08:24:56.577Z,24.18
2017-06-12T08:25:58.985Z,24.16
2017-06-12T08:27:01.399Z,24.11
2017-06-12T08:28:03.799Z,24.17
2017-06-12T08:29:06.208Z,24.23
2017-06-12T08:30:08.657Z,24.05
2017-06-12T08:31:11.071Z,24.29
2017-06-12T08:32:13.478Z,24.43
2017-06-12T08:33:15.886Z,24.53
2017-06-12T08:34:18.301Z,24.33
2017-06-12T08:35:20.736Z,24.38
2017-06-12T08:36:23.144Z,24.38
2017-06-12T08:37:25.548Z,24.32
2017-06-12T08:38:27.947Z,24.23
2017-06-12T08:39:30.358Z,24.20
2017-06-12T08:40:32.764Z,24.21
2017-06-12T08:41:35.171Z,24.36
2017-06-12T08:42:37.577Z,24.29
2017-06-12T08:43:39.986Z,24.16
2017-06-12T08:44:42.395Z,24.29
2017-06-12T08:45:44.798Z,23.76
2017-06-12T08:46:47.198Z,24.16
2017-06-12T08:47:49.608Z,24.85
2017-06-12T08:48:52.015Z,25.21
2017-06-12T08:49:54.416Z,25.47
2017-06-12T08:50:56.831Z,25.65
2017-06-12T08:51:59.232Z,25.54
2017-06-12T08:53:01.647Z,25.51
2017-06-12T08:54:04.056Z,25.75
2017-06-12T08:55:06.462Z,25.96
2017-06-12T08:56:08.885Z,26.21
2017-06-12T08:57:11.302Z,26.22
2017-06-12T08:58:13.709Z,26.29
2017-06-12T08:59:16.122Z,26.33
2017-06-12T09:00:18.528Z,26.53
2017-06-12T09:01:20.927Z,26.74
2017-06-12T09:02:23.340Z,26.75
2017-06-12T09:03:25.758Z,26.58
